createdAt,value
2022-12-04T00:01:46.974Z,95771.84
2022-12-04T00:04:13.289Z,95763.25
2022-12-04T00:06:39.641Z,95767.06
2022-12-04T00:09:05.959Z,95758.88
2022-12-04T00:11:32.268Z,95753.16
2022-12-04T00:14:04.636Z,95749.25
2022-12-04T00:16:33.156Z,95754.97
2022-12-04T00:18:59.559Z,95744.41
2022-12-04T00:21:25.881Z,95759.41
2022-12-04T00:23:52.239Z,95759.22
2022-12-04T00:26:18.548Z,95755.53
2022-12-04T00:28:44.851Z,95751.41
2022-12-04T00:31:11.230Z,95742.41
2022-12-04T00:33:37.584Z,95740.75
2022-12-04T00:36:03.878Z,95731.41
2022-12-04T00:38:30.209Z,95729.84
2022-12-04T00:40:56.506Z,95726.19
2022-12-04T00:43:22.813Z,95737.94
2022-12-04T00:45:49.177Z,95743.09
2022-12-04T00:48:15.533Z,95752.59
2022-12-04T00:50:41.841Z,95752.47
2022-12-04T00:53:08.194Z,95760.00
2022-12-04T00:55:34.636Z,95754.06
2022-12-04T00:58:00.958Z,95751.44
2022-12-04T01:00:27.297Z,95754.16
2022-12-04T01:02:53.668Z,95745.13
2022-12-04T01:05:20.022Z,95744.31
2022-12-04T01:07:46.394Z,95739.34
2022-12-04T01:10:12.774Z,95746.81
2022-12-04T01:12:39.090Z,95739.59
2022-12-04T01:15:05.427Z,95730.38
2022-12-04T01:17:31.728Z,95740.09
2022-12-04T01:19:58.132Z,95740.75
2022-12-04T01:22:24.649Z,95736.88
2022-12-04T01:24:51.008Z,95732.13
2022-12-04T01:27:17.309Z,95744.31
2022-12-04T01:29:43.675Z,95743.50
2022-12-04T01:32:10.085Z,95733.34
2022-12-04T01:34:36.444Z,95734.91
2022-12-04T01:37:02.766Z,95731.81
2022-12-04T01:39:29.068Z,95729.59
2022-12-04T01:41:55.372Z,95725.94
2022-12-04T01:44:21.713Z,95734.28
2022-12-04T01:46:48.028Z,95741.03
2022-12-04T01:49:14.323Z,95738.22
2022-12-04T01:51:40.654Z,95752.31
2022-12-04T01:54:06.948Z,95749.16
2022-12-04T01:56:33.567Z,95749.75
2022-12-04T01:58:59.897Z,95735.28
2022-12-04T02:01:26.244Z,95736.34
2022-12-04T02:03:52.561Z,95732.09
2022-12-04T02:06:18.894Z,95725.34
2022-12-04T02:08:45.214Z,95722.16
2022-12-04T02:11:11.513Z,95719.09
2022-12-04T02:13:37.855Z,95717.56
2022-12-04T02:16:04.152Z,95718.78
2022-12-04T02:18:30.460Z,95722.22
2022-12-04T02:20:56.781Z,95722.66
2022-12-04T02:23:23.079Z,95723.81
2022-12-04T02:25:49.437Z,95724.72
2022-12-04T02:28:15.777Z,95720.81
2022-12-04T02:30:42.128Z,95724.00
2022-12-04T02:33:08.462Z,95731.13
2022-12-04T02:35:34.832Z,95728.97
2022-12-04T02:38:01.145Z,95739.59
2022-12-04T02:40:27.453Z,95727.00
2022-12-04T02:42:53.780Z,95728.25
2022-12-04T02:45:20.078Z,95726.97
2022-12-04T02:47:46.390Z,95727.13
2022-12-04T02:50:12.822Z,95728.03
2022-12-04T02:52:39.144Z,95728.69
2022-12-04T02:55:08.419Z,95725.53
2022-12-04T02:57:35.223Z,95727.69
2022-12-04T03:00:01.537Z,95731.44
2022-12-04T03:02:27.872Z,95729.31
2022-12-04T03:04:54.226Z,95722.31
2022-12-04T03:07:20.525Z,95725.91
2022-12-04T03:09:46.826Z,95726.75
2022-12-04T03:12:13.158Z,95722.31
2022-12-04T03:14:39.471Z,95721.97
2022-12-04T03:17:05.832Z,95729.75
2022-12-04T03:19:32.218Z,95726.75
2022-12-04T03:21:58.529Z,95720.34
2022-12-04T03:24:24.836Z,95729.81
2022-12-04T03:26:51.167Z,95737.31
2022-12-04T03:29:17.472Z,95732.69
2022-12-04T03:31:43.787Z,95725.13
2022-12-04T03:34:10.111Z,95731.00
2022-12-04T03:36:36.410Z,95731.69
2022-12-04T03:39:02.711Z,95734.50
2022-12-04T03:41:29.084Z,95729.03
2022-12-04T03:43:55.379Z,95739.56
2022-12-04T03:46:21.729Z,95731.78
2022-12-04T03:48:48.093Z,95727.41
2022-12-04T03:51:14.396Z,95727.84
2022-12-04T03:53:40.696Z,95726.31
2022-12-04T03:56:07.041Z,95729.56
2022-12-04T03:58:33.357Z,95724.81
2022-12-04T04:00:59.696Z,95725.97
2022-12-04T04:03:26.095Z,95731.63
2022-12-04T04:05:52.403Z,95730.31
2022-12-04T04:08:18.774Z,95733.53
2022-12-04T04:10:45.142Z,95733.84
2022-12-04T04:13:11.452Z,95736.59
2022-12-04T04:15:37.816Z,95733.34
2022-12-04T04:18:04.208Z,95736.94
2022-12-04T04:20:30.520Z,95740.00
2022-12-04T04:22:56.836Z,95734.78
2022-12-04T04:25:23.155Z,95734.00
2022-12-04T04:27:49.452Z,95729.25
2022-12-04T04:30:15.768Z,95730.97
2022-12-04T04:32:42.099Z,95733.53
2022-12-04T04:35:08.399Z,95734.03
2022-12-04T04:37:34.717Z,95733.91
2022-12-04T04:40:01.050Z,95737.00
2022-12-04T04:42:27.357Z,95737.44
2022-12-04T04:44:53.660Z,95740.28
2022-12-04T04:47:20.035Z,95738.28
2022-12-04T04:49:46.341Z,95743.00
2022-12-04T04:52:12.654Z,95742.84
2022-12-04T04:54:39.030Z,95748.88
2022-12-04T04:57:05.324Z,95749.16
2022-12-04T04:59:31.634Z,95747.84
2022-12-04T05:01:57.992Z,95748.88
2022-12-04T05:04:24.373Z,95760.28
2022-12-04T05:06:50.678Z,95746.91
2022-12-04T05:09:17.016Z,95749.34
2022-12-04T05:11:43.329Z,95750.13
2022-12-04T05:14:09.728Z,95737.81
2022-12-04T05:16:36.209Z,95748.97
2022-12-04T05:19:02.577Z,95746.69
2022-12-04T05:21:28.875Z,95751.28
2022-12-04T05:23:55.205Z,95744.03
2022-12-04T05:26:21.541Z,95745.25
2022-12-04T05:28:47.856Z,95747.50
2022-12-04T05:31:14.268Z,95751.47
2022-12-04T05:33:40.621Z,95741.56
2022-12-04T05:36:06.930Z,95743.47
2022-12-04T05:38:33.246Z,95746.63
2022-12-04T05:40:59.563Z,95751.31
2022-12-04T05:43:25.864Z,95747.31
2022-12-04T05:45:52.243Z,95755.94
2022-12-04T05:48:18.553Z,95754.91
2022-12-04T05:50:44.861Z,95756.31
2022-12-04T05:53:11.223Z,95763.16
2022-12-04T05:55:37.653Z,95771.31
2022-12-04T05:58:03.957Z,95772.19
2022-12-04T06:00:30.285Z,95769.44
2022-12-04T06:02:56.651Z,95769.06
2022-12-04T06:05:22.977Z,95766.56
2022-12-04T06:07:49.398Z,95767.72
2022-12-04T06:10:15.721Z,95761.47
2022-12-04T06:12:42.015Z,95757.06
2022-12-04T06:15:08.346Z,95748.09
2022-12-04T06:17:34.651Z,95741.81
2022-12-04T06:20:01.229Z,95726.81
2022-12-04T06:22:28.257Z,95724.84
2022-12-04T06:24:54.559Z,95724.03
2022-12-04T06:27:28.673Z,95722.09
2022-12-04T06:29:55.612Z,95725.63
2022-12-04T06:32:22.499Z,95733.16
2022-12-04T06:34:48.887Z,95742.75
2022-12-04T06:37:15.212Z,95746.66
2022-12-04T06:39:41.522Z,95748.66
2022-12-04T06:42:07.815Z,95751.38
2022-12-04T06:44:34.140Z,95752.50
2022-12-04T06:47:01.089Z,95760.44
2022-12-04T06:49:27.548Z,95760.50
2022-12-04T06:51:53.879Z,95764.88
2022-12-04T06:54:20.192Z,95762.91
2022-12-04T06:56:46.499Z,95757.16
2022-12-04T06:59:13.071Z,95777.50
2022-12-04T07:01:39.416Z,95772.38
2022-12-04T07:04:05.785Z,95773.50
2022-12-04T07:06:32.107Z,95775.09
2022-12-04T07:08:58.413Z,95780.50
2022-12-04T07:11:24.730Z,95776.69
2022-12-04T07:13:51.054Z,95777.50
2022-12-04T07:16:17.388Z,95774.28
2022-12-04T07:18:43.723Z,95779.44
2022-12-04T07:21:10.046Z,95773.41
2022-12-04T07:23:36.355Z,95778.97
2022-12-04T07:26:02.665Z,95776.38
2022-12-04T07:28:28.982Z,95783.47
2022-12-04T07:30:55.282Z,95777.63
2022-12-04T07:33:21.584Z,95779.94
2022-12-04T07:35:47.904Z,95776.03
2022-12-04T07:38:14.417Z,95772.84
2022-12-04T07:40:40.731Z,95770.09
2022-12-04T07:43:07.073Z,95775.56
2022-12-04T07:45:33.453Z,95764.59
2022-12-04T07:47:59.816Z,95775.28
2022-12-04T07:50:26.153Z,95777.63
2022-12-04T07:52:52.469Z,95775.28
2022-12-04T07:55:22.978Z,95779.22
2022-12-04T07:57:49.667Z,95775.66
2022-12-04T08:00:15.981Z,95777.25
2022-12-04T08:02:42.286Z,95767.34
2022-12-04T08:05:08.665Z,95761.34
2022-12-04T08:07:35.012Z,95757.41
2022-12-04T08:10:01.321Z,95755.06
2022-12-04T08:12:27.645Z,95759.72
2022-12-04T08:14:53.964Z,95758.41
2022-12-04T08:17:20.362Z,95767.94
2022-12-04T08:19:46.718Z,95769.06
2022-12-04T08:22:13.020Z,95769.22
2022-12-04T08:24:39.333Z,95765.63
2022-12-04T08:27:05.670Z,95773.59
2022-12-04T08:29:31.977Z,95768.44
2022-12-04T08:31:58.294Z,95775.09
2022-12-04T08:34:24.623Z,95768.00
2022-12-04T08:36:53.709Z,95767.97
2022-12-04T08:42:00.263Z,95775.81
2022-12-04T08:44:26.572Z,95777.84
2022-12-04T08:46:52.878Z,95778.22
2022-12-04T08:49:19.206Z,95788.09
2022-12-04T08:51:45.519Z,95789.22
2022-12-04T08:54:14.878Z,95780.91
2022-12-04T08:56:41.217Z,95781.31
2022-12-04T08:59:07.524Z,95778.84
2022-12-04T09:01:33.927Z,95783.56
2022-12-04T09:04:00.415Z,95792.34
2022-12-04T09:06:26.768Z,95783.25
2022-12-04T09:08:53.086Z,95784.34
2022-12-04T09:11:19.462Z,95791.47
2022-12-04T09:13:45.767Z,95794.97
2022-12-04T09:16:12.154Z,95786.28
2022-12-04T09:18:38.548Z,95791.88
2022-12-04T09:21:10.375Z,95792.53
2022-12-04T09:23:36.679Z,95798.78
2022-12-04T09:26:03.019Z,95794.88
2022-12-04T09:28:29.329Z,95800.78
2022-12-04T09:30:55.673Z,95797.00
2022-12-04T09:33:22.106Z,95803.00
2022-12-04T09:35:48.477Z,95807.34
2022-12-04T09:38:14.794Z,95806.41
2022-12-04T09:40:41.126Z,95807.19
2022-12-04T09:43:07.423Z,95804.88
2022-12-04T09:45:33.710Z,95806.50
2022-12-04T09:48:01.369Z,95807.69
2022-12-04T09:50:27.678Z,95803.84
2022-12-04T09:52:53.988Z,95804.16
2022-12-04T09:55:20.319Z,95813.59
2022-12-04T09:57:46.611Z,95817.56
2022-12-04T10:00:12.933Z,95814.06
2022-12-04T10:02:39.402Z,95809.41
2022-12-04T10:05:05.759Z,95811.66
2022-12-04T10:07:32.134Z,95813.53
2022-12-04T10:09:58.746Z,95810.03
2022-12-04T10:12:25.238Z,95807.69
2022-12-04T10:14:51.546Z,95800.97
2022-12-04T10:17:17.912Z,95810.88
2022-12-04T10:19:44.204Z,95809.66
2022-12-04T10:22:10.503Z,95807.97
2022-12-04T10:24:36.840Z,95804.00
2022-12-04T10:27:03.140Z,95793.41
2022-12-04T10:29:29.442Z,95791.53
2022-12-04T10:31:55.771Z,95795.00
2022-12-04T10:34:22.063Z,95800.06
2022-12-04T10:36:48.359Z,95801.00
2022-12-04T10:39:14.692Z,95796.25
2022-12-04T10:41:40.998Z,95795.47
2022-12-04T10:44:07.298Z,95803.00
2022-12-04T10:46:33.696Z,95805.38
2022-12-04T10:49:00.132Z,95795.97
2022-12-04T10:51:26.427Z,95797.97
2022-12-04T10:53:52.753Z,95806.69
2022-12-04T10:56:19.071Z,95801.13
2022-12-04T10:58:45.362Z,95799.59
2022-12-04T11:01:11.682Z,95797.28
2022-12-04T11:03:38.056Z,95792.16
2022-12-04T11:06:04.473Z,95790.88
2022-12-04T11:08:30.934Z,95789.38
2022-12-04T11:10:57.268Z,95785.06
2022-12-04T11:13:23.609Z,95786.19
2022-12-04T11:15:50.079Z,95782.59
2022-12-04T11:18:16.415Z,95787.31
2022-12-04T11:20:46.827Z,95779.38
2022-12-04T11:23:13.399Z,95771.84
2022-12-04T11:25:39.697Z,95768.56
2022-12-04T11:28:05.990Z,95758.56
2022-12-04T11:30:32.330Z,95756.69
2022-12-04T11:32:58.643Z,95751.53
2022-12-04T11:35:24.947Z,95747.31
2022-12-04T11:37:51.278Z,95750.25
2022-12-04T11:40:17.606Z,95748.06
2022-12-04T11:42:43.924Z,95750.69
2022-12-04T11:45:10.243Z,95734.09
2022-12-04T11:47:36.548Z,95746.31
2022-12-04T11:50:02.875Z,95745.53
2022-12-04T11:52:29.204Z,95752.97
2022-12-04T11:54:55.518Z,95746.97
2022-12-04T11:57:21.825Z,95744.69
2022-12-04T11:59:48.157Z,95749.81
2022-12-04T12:02:14.574Z,95751.47
2022-12-04T12:04:41.024Z,95748.44
2022-12-04T12:07:07.346Z,95750.78
2022-12-04T12:09:33.641Z,95748.38
2022-12-04T12:11:59.947Z,95748.16
2022-12-04T12:14:26.263Z,95743.47
2022-12-04T12:19:23.741Z,95724.16
2022-12-04T12:21:50.059Z,95725.81
2022-12-04T12:24:16.350Z,95715.31
2022-12-04T12:26:42.630Z,95706.38
2022-12-04T12:29:09.013Z,95704.69
2022-12-04T12:31:35.349Z,95694.50
2022-12-04T12:34:01.671Z,95692.28
2022-12-04T12:36:27.984Z,95694.03
2022-12-04T12:38:54.278Z,95689.97
2022-12-04T12:41:20.582Z,95705.63
2022-12-04T12:43:46.971Z,95711.00
2022-12-04T12:46:13.365Z,95718.13
2022-12-04T12:48:39.682Z,95719.59
2022-12-04T12:51:31.273Z,95716.41
2022-12-04T12:53:52.250Z,95724.41
2022-12-04T12:56:18.557Z,95721.16
2022-12-04T12:58:44.849Z,95701.72
2022-12-04T13:01:11.214Z,95711.91
2022-12-04T13:03:37.572Z,95705.41
2022-12-04T13:06:03.881Z,95693.38
2022-12-04T13:08:30.188Z,95693.38
2022-12-04T13:10:56.532Z,95694.31
2022-12-04T13:13:22.845Z,95695.66
2022-12-04T13:15:49.148Z,95693.66
2022-12-04T13:18:15.466Z,95688.66
2022-12-04T13:20:41.771Z,95687.88
2022-12-04T13:23:08.067Z,95685.91
2022-12-04T13:25:34.394Z,95687.75
2022-12-04T13:28:00.696Z,95672.66
2022-12-04T13:30:27.009Z,95667.13
2022-12-04T13:32:53.431Z,95665.00
2022-12-04T13:35:19.745Z,95657.19
2022-12-04T13:37:46.065Z,95660.50
2022-12-04T13:40:12.400Z,95663.53
2022-12-04T13:42:38.711Z,95663.69
2022-12-04T13:45:05.016Z,95669.81
2022-12-04T13:47:31.339Z,95664.75
2022-12-04T13:49:57.647Z,95659.22
2022-12-04T13:52:23.963Z,95651.28
2022-12-04T13:54:50.318Z,95657.03
2022-12-04T13:57:16.620Z,95649.63
2022-12-04T13:59:42.925Z,95639.31
2022-12-04T14:02:09.291Z,95636.41
2022-12-04T14:04:35.649Z,95629.34
2022-12-04T14:07:01.958Z,95632.88
2022-12-04T14:09:28.292Z,95639.19
2022-12-04T14:11:54.598Z,95640.50
2022-12-04T14:14:20.899Z,95642.81
2022-12-04T14:16:47.285Z,95645.81
2022-12-04T14:19:13.689Z,95639.41
2022-12-04T14:21:39.991Z,95645.03
2022-12-04T14:24:06.319Z,95647.13
2022-12-04T14:26:49.300Z,95641.84
2022-12-04T14:29:18.913Z,95641.38
2022-12-04T14:31:46.419Z,95648.59
2022-12-04T14:34:12.732Z,95653.75
2022-12-04T14:36:39.100Z,95658.50
2022-12-04T14:39:05.416Z,95667.63
2022-12-04T14:41:31.715Z,95669.00
2022-12-04T14:43:58.065Z,95674.22
2022-12-04T14:46:24.426Z,95674.66
2022-12-04T14:48:50.800Z,95679.06
2022-12-04T14:51:17.174Z,95686.47
2022-12-04T14:53:43.479Z,95681.31
2022-12-04T14:56:09.767Z,95679.63
2022-12-04T14:58:36.087Z,95680.09
2022-12-04T15:01:02.389Z,95684.03
2022-12-04T15:03:28.774Z,95680.50
2022-12-04T15:05:55.392Z,95679.38
2022-12-04T15:08:21.747Z,95684.34
2022-12-04T15:10:48.119Z,95682.16
2022-12-04T15:13:18.588Z,95697.09
2022-12-04T15:15:47.924Z,95679.28
2022-12-04T15:18:14.334Z,95680.59
2022-12-04T15:20:40.635Z,95680.50
2022-12-04T15:23:06.931Z,95682.78
2022-12-04T15:25:33.256Z,95682.88
2022-12-04T15:27:59.550Z,95683.16
2022-12-04T15:30:25.878Z,95699.88
2022-12-04T15:32:52.218Z,95702.69
2022-12-04T15:35:18.518Z,95710.44
2022-12-04T15:37:44.818Z,95710.50
2022-12-04T15:40:11.178Z,95712.78
2022-12-04T15:42:37.471Z,95716.13
2022-12-04T15:45:03.781Z,95724.25
2022-12-04T15:47:30.113Z,95715.94
2022-12-04T15:49:56.550Z,95718.88
2022-12-04T15:52:22.975Z,95720.44
2022-12-04T15:54:49.332Z,95719.97
2022-12-04T15:57:15.647Z,95722.72
2022-12-04T15:59:41.937Z,95729.50
2022-12-04T16:02:08.359Z,95734.16
2022-12-04T16:04:34.979Z,95730.97
2022-12-04T16:07:01.316Z,95730.25
2022-12-04T16:09:28.825Z,95738.13
2022-12-04T16:11:55.129Z,95735.09
2022-12-04T16:14:21.439Z,95743.66
2022-12-04T16:16:47.769Z,95746.47
2022-12-04T16:19:14.064Z,95750.38
2022-12-04T16:21:40.357Z,95757.19
2022-12-04T16:24:06.681Z,95765.91
2022-12-04T16:26:32.982Z,95771.72
2022-12-04T16:28:59.299Z,95776.72
2022-12-04T16:31:25.649Z,95777.28
2022-12-04T16:33:54.965Z,95793.25
2022-12-04T16:36:21.276Z,95791.88
2022-12-04T16:38:47.596Z,95796.56
2022-12-04T16:41:15.689Z,95795.88
2022-12-04T16:43:43.771Z,95787.94
2022-12-04T16:46:10.169Z,95790.25
2022-12-04T16:48:37.909Z,95789.28
2022-12-04T16:51:04.213Z,95781.78
2022-12-04T16:53:31.462Z,95785.25
2022-12-04T16:55:57.753Z,95785.84
2022-12-04T16:58:24.059Z,95786.53
2022-12-04T17:00:53.239Z,95787.38
2022-12-04T17:03:19.558Z,95785.38
2022-12-04T17:05:45.868Z,95792.19
2022-12-04T17:08:12.259Z,95786.72
2022-12-04T17:10:38.677Z,95796.63
2022-12-04T17:13:04.977Z,95801.13
2022-12-04T17:15:31.304Z,95800.78
2022-12-04T17:17:57.606Z,95794.94
2022-12-04T17:20:23.917Z,95805.22
2022-12-04T17:22:50.249Z,95818.38
2022-12-04T17:25:16.558Z,95817.44
2022-12-04T17:27:42.864Z,95819.81
2022-12-04T17:30:21.063Z,95810.41
2022-12-04T17:32:47.368Z,95811.50
2022-12-04T17:35:13.709Z,95811.28
2022-12-04T17:37:40.042Z,95818.94
2022-12-04T17:40:06.368Z,95825.53
2022-12-04T17:42:32.705Z,95835.81
2022-12-04T17:44:59.303Z,95845.84
2022-12-04T17:47:25.759Z,95855.72
2022-12-04T17:49:52.135Z,95868.63
2022-12-04T17:52:18.436Z,95883.81
2022-12-04T17:54:44.753Z,95893.56
2022-12-04T17:57:11.088Z,95887.47
2022-12-04T17:59:37.399Z,95886.63
2022-12-04T18:02:03.696Z,95888.88
2022-12-04T18:04:30.005Z,95888.06
2022-12-04T18:06:56.296Z,95887.59
2022-12-04T18:09:22.593Z,95888.06
2022-12-04T18:11:48.915Z,95895.28
2022-12-04T18:14:15.207Z,95904.94
2022-12-04T18:16:41.612Z,95903.66
2022-12-04T18:19:08.079Z,95911.31
2022-12-04T18:21:34.373Z,95917.28
2022-12-04T18:24:00.669Z,95906.59
2022-12-04T18:26:26.994Z,95895.88
2022-12-04T18:28:53.308Z,95885.59
2022-12-04T18:31:19.699Z,95874.53
2022-12-04T18:33:46.083Z,95882.91
2022-12-04T18:36:12.381Z,95875.66
2022-12-04T18:38:38.699Z,95870.28
2022-12-04T18:41:05.046Z,95867.38
2022-12-04T18:43:31.359Z,95868.53
2022-12-04T18:45:59.476Z,95871.66
2022-12-04T18:48:29.002Z,95882.41
2022-12-04T18:50:55.303Z,95881.41
2022-12-04T18:53:21.614Z,95874.19
2022-12-04T18:55:47.986Z,95881.34
2022-12-04T18:58:14.288Z,95885.97
2022-12-04T19:00:40.654Z,95874.78
2022-12-04T19:03:07.006Z,95867.56
2022-12-04T19:05:33.322Z,95869.91
2022-12-04T19:07:59.695Z,95877.50
2022-12-04T19:10:26.518Z,95871.22
2022-12-04T19:12:53.033Z,95865.97
2022-12-04T19:15:19.327Z,95875.41
2022-12-04T19:17:45.668Z,95888.88
2022-12-04T19:20:15.101Z,95891.19
2022-12-04T19:22:41.403Z,95892.06
2022-12-04T19:25:07.748Z,95901.09
2022-12-04T19:27:34.039Z,95911.50
2022-12-04T19:30:00.353Z,95921.47
2022-12-04T19:32:26.720Z,95931.88
2022-12-04T19:34:53.051Z,95937.84
2022-12-04T19:37:19.359Z,95950.41
2022-12-04T19:39:45.689Z,95946.94
2022-12-04T19:42:12.002Z,95937.00
2022-12-04T19:44:53.529Z,95946.81
2022-12-04T19:47:19.861Z,95933.03
2022-12-04T19:49:46.177Z,95921.91
2022-12-04T19:52:12.481Z,95936.28
2022-12-04T19:54:38.821Z,95955.97
2022-12-04T19:57:05.136Z,95954.72
2022-12-04T19:59:36.442Z,95965.34
2022-12-04T20:02:07.759Z,95972.84
2022-12-04T20:04:34.108Z,95977.59
2022-12-04T20:07:00.412Z,95975.56
2022-12-04T20:09:26.738Z,95981.50
2022-12-04T20:11:53.036Z,95972.50
2022-12-04T20:14:19.345Z,95976.00
2022-12-04T20:16:45.751Z,95976.44
2022-12-04T20:19:12.134Z,95965.00
2022-12-04T20:21:38.448Z,95974.53
2022-12-04T20:24:04.782Z,95968.53
2022-12-04T20:26:31.083Z,95964.53
2022-12-04T20:28:57.387Z,95963.44
2022-12-04T20:31:23.799Z,95965.00
2022-12-04T20:33:50.139Z,95963.41
2022-12-04T20:36:16.444Z,95956.31
2022-12-04T20:38:42.775Z,95962.91
2022-12-04T20:41:09.078Z,95958.53
2022-12-04T20:43:35.391Z,95963.66
2022-12-04T20:46:01.784Z,95966.03
2022-12-04T20:48:28.129Z,95975.59
2022-12-04T20:50:54.425Z,95979.88
2022-12-04T20:53:20.762Z,95971.56
2022-12-04T20:55:47.069Z,95984.91
2022-12-04T20:58:13.379Z,95990.00
2022-12-04T21:00:39.701Z,95982.63
2022-12-04T21:03:06.041Z,95993.72
2022-12-04T21:05:32.439Z,96007.88
2022-12-04T21:07:58.864Z,96000.41
2022-12-04T21:10:25.208Z,96008.66
2022-12-04T21:12:51.519Z,96010.56
2022-12-04T21:15:17.854Z,96022.78
2022-12-04T21:17:44.156Z,96035.41
2022-12-04T21:20:10.743Z,96047.63
2022-12-04T21:22:37.237Z,96058.75
2022-12-04T21:25:03.542Z,96071.78
2022-12-04T21:27:29.848Z,96082.13
2022-12-04T21:29:56.400Z,96076.59
2022-12-04T21:32:22.865Z,96073.94
2022-12-04T21:34:49.177Z,96064.50
2022-12-04T21:37:15.540Z,96073.25
2022-12-04T21:39:41.840Z,96075.88
2022-12-04T21:42:08.152Z,96070.03
2022-12-04T21:44:34.479Z,96072.06
2022-12-04T21:47:00.824Z,96073.09
2022-12-04T21:49:27.178Z,96079.47
2022-12-04T21:51:58.081Z,96078.22
2022-12-04T21:54:24.932Z,96089.69
2022-12-04T21:56:51.247Z,96095.69
2022-12-04T21:59:17.573Z,96105.91
2022-12-04T22:01:43.948Z,96102.75
2022-12-04T22:04:10.286Z,96109.09
2022-12-04T22:06:36.620Z,96106.69
2022-12-04T22:09:02.919Z,96098.00
2022-12-04T22:11:29.230Z,96101.06
2022-12-04T22:13:55.601Z,96102.72
2022-12-04T23:27:12.341Z,96113.47
2022-12-04T23:30:04.358Z,96112.47
2022-12-04T23:32:24.969Z,96120.94
2022-12-04T23:49:04.230Z,96119.56
2022-12-04T23:51:30.550Z,96132.19
2022-12-04T23:53:56.936Z,96133.81
2022-12-04T23:56:23.252Z,96148.41
2022-12-04T23:58:57.470Z,96151.25
